EZY59AU LEBL-EGPH
Flight info
| Callsign | EZY59AU |
|---|---|
| Flight time | 2h 33m |
| Altitude | 32000 |
| Route | NATPI DCT EVNAM/N0441F380 DCT TUPAR UN861 ANG DCT AKIKI UN867 VASUX DCT TNT UN57 POL UN601 RIBEL DCT INPIP |
| Aircraft | A20N/M-SDE2E3FGHIJ1RWXYZ/LB1 |
Departure
| Time | 2026-05-06 18:03 |
|---|---|
| Airport | Josep Tarradellas Barcelona-El Prat Airport (LEBL) |
Arrival
| Time | 2026-05-06 20:36 |
|---|---|
| Airport | Edinburgh Airport (EGPH) |
| Time | Latitude | Longitude | Altitude | Speed | Heading |
|---|---|---|---|---|---|
| 2026-05-06 17:16 | 41.30233 | 2.07924 | 22 ft | 0 kts | 25° |
| 2026-05-06 17:44 | 41.30213 | 2.07915 | 20 ft | 4 kts | 358° |
| 2026-05-06 17:45 | 41.30189 | 2.07925 | 24 ft | 4 kts | 311° |
| 2026-05-06 17:45 | 41.30178 | 2.07955 | 19 ft | 4 kts | 261° |
| 2026-05-06 17:45 | 41.30179 | 2.07963 | 22 ft | 0 kts | 246° |
| 2026-05-06 17:46 | 41.30178 | 2.07991 | 20 ft | 6 kts | 320° |
| 2026-05-06 17:46 | 41.30159 | 2.08029 | 21 ft | 0 kts | 277° |
| 2026-05-06 17:46 | 41.30159 | 2.08038 | 18 ft | 1 kts | 253° |
| 2026-05-06 17:46 | 41.30156 | 2.08028 | 21 ft | 2 kts | 255° |
| 2026-05-06 17:47 | 41.30154 | 2.08022 | 20 ft | 0 kts | 246° |
| 2026-05-06 17:51 | 41.30156 | 2.08029 | 21 ft | 5 kts | 277° |
| 2026-05-06 17:51 | 41.30135 | 2.08033 | 20 ft | 0 kts | 79° |
| 2026-05-06 17:51 | 41.30139 | 2.08041 | 18 ft | 1 kts | 54° |
| 2026-05-06 17:51 | 41.30149 | 2.08057 | 20 ft | 4 kts | 48° |
| 2026-05-06 17:52 | 41.30175 | 2.08096 | 18 ft | 7 kts | 51° |
| 2026-05-06 17:52 | 41.30186 | 2.08165 | 18 ft | 9 kts | 116° |
| 2026-05-06 17:52 | 41.30124 | 2.08217 | 17 ft | 12 kts | 163° |
| 2026-05-06 17:52 | 41.30049 | 2.08260 | 18 ft | 13 kts | 156° |
| 2026-05-06 17:53 | 41.29978 | 2.08301 | 21 ft | 3 kts | 156° |
| 2026-05-06 17:55 | 41.29968 | 2.08307 | 20 ft | 4 kts | 156° |
| 2026-05-06 17:56 | 41.29924 | 2.08333 | 23 ft | 8 kts | 156° |
| 2026-05-06 17:56 | 41.29868 | 2.08367 | 28 ft | 11 kts | 155° |
| 2026-05-06 17:56 | 41.29767 | 2.08430 | 16 ft | 21 kts | 155° |
| 2026-05-06 17:56 | 41.29627 | 2.08512 | 17 ft | 22 kts | 156° |
| 2026-05-06 17:57 | 41.29479 | 2.08598 | 15 ft | 25 kts | 156° |
| 2026-05-06 17:57 | 41.29428 | 2.08629 | 16 ft | 0 kts | 154° |
| 2026-05-06 17:57 | 41.29424 | 2.08632 | 15 ft | 2 kts | 149° |
| 2026-05-06 17:57 | 41.29415 | 2.08639 | 15 ft | 0 kts | 150° |
| 2026-05-06 17:58 | 41.29376 | 2.08665 | 18 ft | 12 kts | 155° |
| 2026-05-06 17:58 | 41.29293 | 2.08716 | 17 ft | 14 kts | 155° |
| 2026-05-06 17:58 | 41.29191 | 2.08776 | 17 ft | 17 kts | 157° |
| 2026-05-06 17:58 | 41.29076 | 2.08843 | 15 ft | 19 kts | 155° |
| 2026-05-06 17:59 | 41.28968 | 2.08910 | 16 ft | 14 kts | 153° |
| 2026-05-06 17:59 | 41.28954 | 2.08992 | 16 ft | 10 kts | 73° |
| 2026-05-06 17:59 | 41.28985 | 2.09085 | 17 ft | 12 kts | 65° |
| 2026-05-06 17:59 | 41.29024 | 2.09202 | 17 ft | 15 kts | 66° |
| 2026-05-06 18:00 | 41.29069 | 2.09339 | 17 ft | 17 kts | 67° |
| 2026-05-06 18:00 | 41.29118 | 2.09479 | 16 ft | 14 kts | 65° |
| 2026-05-06 18:00 | 41.29162 | 2.09604 | 16 ft | 16 kts | 65° |
| 2026-05-06 18:00 | 41.29210 | 2.09750 | 18 ft | 18 kts | 66° |
| 2026-05-06 18:01 | 41.29266 | 2.09912 | 16 ft | 20 kts | 61° |
| 2026-05-06 18:01 | 41.29322 | 2.10083 | 16 ft | 21 kts | 96° |
| 2026-05-06 18:01 | 41.29289 | 2.10208 | 13 ft | 23 kts | 110° |
| 2026-05-06 18:01 | 41.29205 | 2.10279 | 15 ft | 14 kts | 228° |
| 2026-05-06 18:02 | 41.29164 | 2.10162 | 16 ft | 16 kts | 244° |
| 2026-05-06 18:02 | 41.29033 | 2.09788 | 19 ft | 78 kts | 245° |
| 2026-05-06 18:02 | 41.28730 | 2.08906 | 20 ft | 131 kts | 246° |
| 2026-05-06 18:02 | 41.28297 | 2.07675 | 203 ft | 156 kts | 244° |
| 2026-05-06 18:03 | 41.27674 | 2.06543 | 777 ft | 150 kts | 210° |
| 2026-05-06 18:03 | 41.26699 | 2.06127 | 1411 ft | 147 kts | 191° |
| 2026-05-06 18:03 | 41.25683 | 2.05919 | 1953 ft | 152 kts | 189° |
| 2026-05-06 18:03 | 41.24580 | 2.05688 | 2290 ft | 172 kts | 191° |
| 2026-05-06 18:04 | 41.23326 | 2.05354 | 2660 ft | 193 kts | 194° |
| 2026-05-06 18:04 | 41.21956 | 2.04928 | 3078 ft | 213 kts | 196° |
| 2026-05-06 18:04 | 41.20528 | 2.04454 | 3624 ft | 224 kts | 197° |
| 2026-05-06 18:04 | 41.19068 | 2.03761 | 4506 ft | 224 kts | 214° |
| 2026-05-06 18:05 | 41.17909 | 2.02401 | 5321 ft | 224 kts | 235° |
| 2026-05-06 18:05 | 41.16939 | 2.00702 | 5793 ft | 238 kts | 235° |
| 2026-05-06 18:05 | 41.15925 | 1.98933 | 6466 ft | 242 kts | 235° |
| 2026-05-06 18:05 | 41.14903 | 1.97174 | 7433 ft | 239 kts | 234° |
| 2026-05-06 18:06 | 41.13899 | 1.95405 | 8309 ft | 241 kts | 239° |
| 2026-05-06 18:06 | 41.13122 | 1.93405 | 9160 ft | 242 kts | 251° |
| 2026-05-06 18:06 | 41.12628 | 1.91288 | 9929 ft | 249 kts | 255° |
| 2026-05-06 18:06 | 41.12118 | 1.89006 | 10563 ft | 258 kts | 255° |
| 2026-05-06 18:07 | 41.11620 | 1.86718 | 11374 ft | 259 kts | 260° |
| 2026-05-06 18:07 | 41.11564 | 1.84365 | 12136 ft | 261 kts | 279° |
| 2026-05-06 18:07 | 41.12104 | 1.82066 | 12861 ft | 267 kts | 291° |
| 2026-05-06 18:07 | 41.12826 | 1.79695 | 13182 ft | 289 kts | 291° |
| 2026-05-06 18:08 | 41.13758 | 1.77215 | 13403 ft | 313 kts | 303° |
| 2026-05-06 18:08 | 41.15288 | 1.75008 | 13619 ft | 337 kts | 320° |
| 2026-05-06 18:08 | 41.17335 | 1.73352 | 14094 ft | 349 kts | 329° |
| 2026-05-06 18:08 | 41.19530 | 1.71747 | 14864 ft | 351 kts | 329° |
| 2026-05-06 18:09 | 41.21656 | 1.70241 | 15575 ft | 354 kts | 333° |
| 2026-05-06 18:09 | 41.23889 | 1.68908 | 16273 ft | 358 kts | 333° |
| 2026-05-06 18:09 | 41.26198 | 1.67519 | 16954 ft | 362 kts | 333° |
| 2026-05-06 18:09 | 41.28494 | 1.66129 | 17647 ft | 365 kts | 333° |
| 2026-05-06 18:10 | 41.30815 | 1.64722 | 18314 ft | 368 kts | 333° |
| 2026-05-06 18:10 | 41.33158 | 1.63302 | 18888 ft | 372 kts | 332° |
| 2026-05-06 18:10 | 41.35521 | 1.61870 | 19474 ft | 375 kts | 332° |
| 2026-05-06 18:10 | 41.37901 | 1.60427 | 20050 ft | 378 kts | 332° |
| 2026-05-06 18:11 | 41.40303 | 1.58970 | 20631 ft | 381 kts | 331° |
| 2026-05-06 18:11 | 41.42720 | 1.57501 | 21214 ft | 384 kts | 331° |
| 2026-05-06 18:11 | 41.45153 | 1.56022 | 21812 ft | 386 kts | 330° |
| 2026-05-06 18:11 | 41.47612 | 1.54526 | 22338 ft | 390 kts | 330° |
| 2026-05-06 18:12 | 41.50087 | 1.53018 | 22911 ft | 392 kts | 330° |
| 2026-05-06 18:12 | 41.52579 | 1.51507 | 23486 ft | 396 kts | 331° |
| 2026-05-06 18:12 | 41.55166 | 1.50278 | 23942 ft | 404 kts | 339° |
| 2026-05-06 18:12 | 41.57961 | 1.49464 | 24366 ft | 413 kts | 345° |
| 2026-05-06 18:13 | 41.60819 | 1.48859 | 24805 ft | 416 kts | 345° |
| 2026-05-06 18:13 | 41.63684 | 1.48226 | 25224 ft | 418 kts | 345° |
| 2026-05-06 18:13 | 41.66564 | 1.47580 | 25631 ft | 421 kts | 345° |
| 2026-05-06 18:13 | 41.69352 | 1.46955 | 26060 ft | 424 kts | 345° |
| 2026-05-06 18:14 | 41.72266 | 1.46301 | 26491 ft | 426 kts | 345° |
| 2026-05-06 18:14 | 41.75151 | 1.45654 | 26859 ft | 430 kts | 345° |
| 2026-05-06 18:14 | 41.78119 | 1.44989 | 27249 ft | 432 kts | 345° |
| 2026-05-06 18:14 | 41.81093 | 1.44325 | 27644 ft | 435 kts | 345° |
| 2026-05-06 18:15 | 41.84126 | 1.43643 | 28045 ft | 437 kts | 345° |
| 2026-05-06 18:15 | 41.87093 | 1.42975 | 28400 ft | 440 kts | 345° |
| 2026-05-06 18:15 | 41.90155 | 1.42285 | 28771 ft | 443 kts | 345° |
| 2026-05-06 18:15 | 41.93168 | 1.41608 | 29106 ft | 445 kts | 344° |
| 2026-05-06 18:16 | 41.96271 | 1.40914 | 29419 ft | 448 kts | 344° |
| 2026-05-06 18:16 | 41.99315 | 1.40232 | 29758 ft | 450 kts | 344° |
| 2026-05-06 18:16 | 42.02414 | 1.39536 | 30071 ft | 453 kts | 344° |
| 2026-05-06 18:16 | 42.05520 | 1.38835 | 30357 ft | 455 kts | 344° |
| 2026-05-06 18:17 | 42.08664 | 1.38126 | 30650 ft | 457 kts | 344° |
| 2026-05-06 18:17 | 42.11804 | 1.37415 | 30938 ft | 460 kts | 344° |
| 2026-05-06 18:17 | 42.14964 | 1.36701 | 31295 ft | 460 kts | 344° |
| 2026-05-06 18:17 | 42.18113 | 1.35988 | 31643 ft | 460 kts | 344° |
| 2026-05-06 18:18 | 42.21270 | 1.35271 | 31884 ft | 458 kts | 344° |
| 2026-05-06 18:18 | 42.24401 | 1.34560 | 31926 ft | 457 kts | 344° |
| 2026-05-06 18:18 | 42.30642 | 1.33143 | 31935 ft | 455 kts | 344° |
| 2026-05-06 18:19 | 42.36901 | 1.31714 | 31938 ft | 455 kts | 344° |
| 2026-05-06 18:19 | 42.43125 | 1.30298 | 31943 ft | 454 kts | 345° |
| 2026-05-06 18:20 | 42.49352 | 1.28875 | 31958 ft | 453 kts | 345° |
| 2026-05-06 18:20 | 42.55399 | 1.26899 | 31972 ft | 448 kts | 338° |
| 2026-05-06 18:21 | 42.61366 | 1.24492 | 31979 ft | 447 kts | 338° |
| 2026-05-06 18:21 | 42.67326 | 1.22127 | 31984 ft | 446 kts | 339° |
| 2026-05-06 18:22 | 42.73282 | 1.19796 | 31992 ft | 445 kts | 339° |
| 2026-05-06 18:22 | 42.79206 | 1.17480 | 31995 ft | 442 kts | 339° |
| 2026-05-06 18:23 | 42.85145 | 1.15150 | 32004 ft | 444 kts | 339° |
| 2026-05-06 18:23 | 42.91062 | 1.12824 | 32003 ft | 443 kts | 339° |
| 2026-05-06 18:24 | 42.97000 | 1.10483 | 32003 ft | 443 kts | 339° |
| 2026-05-06 18:24 | 43.02925 | 1.08144 | 32003 ft | 444 kts | 340° |
| 2026-05-06 18:25 | 43.08852 | 1.05800 | 32006 ft | 444 kts | 340° |
| 2026-05-06 18:25 | 43.14802 | 1.03443 | 32011 ft | 445 kts | 340° |
| 2026-05-06 18:26 | 43.20752 | 1.01081 | 31991 ft | 441 kts | 340° |
| 2026-05-06 18:26 | 43.26614 | 0.98748 | 31992 ft | 441 kts | 340° |
| 2026-05-06 18:27 | 43.32510 | 0.96396 | 31989 ft | 441 kts | 340° |
| 2026-05-06 18:27 | 43.38428 | 0.94031 | 31988 ft | 440 kts | 340° |
| 2026-05-06 18:28 | 43.44297 | 0.91682 | 31984 ft | 439 kts | 340° |
| 2026-05-06 18:28 | 43.50154 | 0.89332 | 31985 ft | 439 kts | 340° |
| 2026-05-06 18:29 | 43.56010 | 0.86978 | 31983 ft | 438 kts | 340° |
| 2026-05-06 18:29 | 43.61860 | 0.84621 | 31981 ft | 437 kts | 340° |
| 2026-05-06 18:30 | 43.67705 | 0.82262 | 31981 ft | 437 kts | 341° |
| 2026-05-06 18:30 | 43.73495 | 0.79921 | 31977 ft | 437 kts | 341° |
| 2026-05-06 18:31 | 43.79315 | 0.77562 | 31981 ft | 436 kts | 341° |
| 2026-05-06 18:31 | 43.85185 | 0.75178 | 31974 ft | 436 kts | 341° |
| 2026-05-06 18:32 | 43.90990 | 0.72816 | 31968 ft | 435 kts | 341° |
| 2026-05-06 18:32 | 43.96810 | 0.70443 | 31969 ft | 435 kts | 341° |
| 2026-05-06 18:33 | 44.02623 | 0.68068 | 31958 ft | 435 kts | 341° |
| 2026-05-06 18:33 | 44.08438 | 0.65688 | 31959 ft | 435 kts | 341° |
| 2026-05-06 18:34 | 44.14240 | 0.63308 | 31970 ft | 435 kts | 341° |
| 2026-05-06 18:34 | 44.20058 | 0.60917 | 31954 ft | 435 kts | 341° |
| 2026-05-06 18:35 | 44.25849 | 0.58531 | 31981 ft | 436 kts | 341° |
| 2026-05-06 18:35 | 44.31582 | 0.56164 | 31974 ft | 436 kts | 341° |
| 2026-05-06 18:36 | 44.37411 | 0.53754 | 31977 ft | 436 kts | 341° |
| 2026-05-06 18:36 | 44.43256 | 0.51331 | 31982 ft | 436 kts | 342° |
| 2026-05-06 18:37 | 44.48088 | 0.49324 | 31985 ft | 435 kts | 342° |
| 2026-05-06 18:37 | 44.54877 | 0.46499 | 31970 ft | 435 kts | 342° |
| 2026-05-06 18:38 | 44.59686 | 0.44494 | 31968 ft | 434 kts | 342° |
| 2026-05-06 18:38 | 44.65477 | 0.42074 | 31972 ft | 433 kts | 342° |
| 2026-05-06 18:39 | 44.71247 | 0.39659 | 31966 ft | 433 kts | 342° |
| 2026-05-06 18:40 | 44.79879 | 0.36036 | 31968 ft | 432 kts | 342° |
| 2026-05-06 18:40 | 44.85614 | 0.33622 | 31962 ft | 432 kts | 342° |
| 2026-05-06 18:41 | 44.91377 | 0.31191 | 31959 ft | 431 kts | 342° |
| 2026-05-06 18:41 | 44.97021 | 0.28806 | 31953 ft | 431 kts | 342° |
| 2026-05-06 18:42 | 45.02762 | 0.26375 | 31952 ft | 431 kts | 342° |
| 2026-05-06 18:42 | 45.08511 | 0.23936 | 31942 ft | 431 kts | 342° |
| 2026-05-06 18:43 | 45.14267 | 0.21488 | 31940 ft | 431 kts | 342° |
| 2026-05-06 18:43 | 45.20017 | 0.19038 | 31941 ft | 431 kts | 342° |
| 2026-05-06 18:44 | 45.25715 | 0.16605 | 31941 ft | 431 kts | 342° |
| 2026-05-06 18:44 | 45.31449 | 0.14152 | 31940 ft | 431 kts | 342° |
| 2026-05-06 18:45 | 45.37188 | 0.11693 | 31941 ft | 431 kts | 342° |
| 2026-05-06 18:45 | 45.42927 | 0.09229 | 31944 ft | 431 kts | 342° |
| 2026-05-06 18:46 | 45.48667 | 0.06758 | 31948 ft | 431 kts | 342° |
| 2026-05-06 18:46 | 45.54390 | 0.04288 | 31941 ft | 431 kts | 342° |
| 2026-05-06 18:47 | 45.60141 | 0.01800 | 31949 ft | 431 kts | 342° |
| 2026-05-06 18:47 | 45.65850 | -0.00674 | 31950 ft | 431 kts | 342° |
| 2026-05-06 18:48 | 45.71595 | -0.03170 | 31942 ft | 431 kts | 342° |
| 2026-05-06 18:48 | 45.77337 | -0.05669 | 31943 ft | 431 kts | 342° |
| 2026-05-06 18:49 | 45.83069 | -0.08169 | 31944 ft | 431 kts | 342° |
| 2026-05-06 18:49 | 45.88809 | -0.10679 | 31946 ft | 431 kts | 342° |
| 2026-05-06 18:50 | 45.94553 | -0.13196 | 31950 ft | 431 kts | 342° |
| 2026-05-06 18:50 | 46.00292 | -0.15716 | 31946 ft | 432 kts | 342° |
| 2026-05-06 18:51 | 46.06041 | -0.18245 | 31948 ft | 432 kts | 342° |
| 2026-05-06 18:51 | 46.11789 | -0.20780 | 31949 ft | 432 kts | 342° |
| 2026-05-06 18:52 | 46.17544 | -0.23324 | 31955 ft | 433 kts | 342° |
| 2026-05-06 18:52 | 46.23310 | -0.25878 | 31956 ft | 433 kts | 342° |
| 2026-05-06 18:53 | 46.29036 | -0.28419 | 31958 ft | 434 kts | 342° |
| 2026-05-06 18:53 | 46.34792 | -0.30980 | 31961 ft | 435 kts | 342° |
| 2026-05-06 18:54 | 46.40634 | -0.33585 | 31967 ft | 435 kts | 342° |
| 2026-05-06 18:54 | 46.46425 | -0.36173 | 31967 ft | 436 kts | 342° |
| 2026-05-06 18:55 | 46.52105 | -0.38717 | 31968 ft | 436 kts | 342° |
| 2026-05-06 18:55 | 46.58007 | -0.41366 | 31973 ft | 437 kts | 342° |
| 2026-05-06 18:56 | 46.63824 | -0.43983 | 31972 ft | 437 kts | 342° |
| 2026-05-06 18:56 | 46.69626 | -0.46599 | 31976 ft | 437 kts | 342° |
| 2026-05-06 18:57 | 46.75444 | -0.49228 | 31977 ft | 437 kts | 342° |
| 2026-05-06 18:57 | 46.81261 | -0.51863 | 31973 ft | 438 kts | 342° |
| 2026-05-06 18:58 | 46.87075 | -0.54502 | 31977 ft | 438 kts | 342° |
| 2026-05-06 18:58 | 46.92901 | -0.57153 | 31977 ft | 438 kts | 342° |
| 2026-05-06 18:59 | 46.98722 | -0.59807 | 31982 ft | 438 kts | 342° |
| 2026-05-06 18:59 | 47.04531 | -0.62463 | 31981 ft | 438 kts | 342° |
| 2026-05-06 19:00 | 47.10361 | -0.65134 | 31979 ft | 438 kts | 342° |
| 2026-05-06 19:00 | 47.16181 | -0.67806 | 31980 ft | 438 kts | 342° |
| 2026-05-06 19:01 | 47.21998 | -0.70483 | 31983 ft | 438 kts | 342° |
| 2026-05-06 19:01 | 47.27855 | -0.73185 | 31984 ft | 438 kts | 342° |
| 2026-05-06 19:02 | 47.33634 | -0.75857 | 31979 ft | 439 kts | 342° |
| 2026-05-06 19:02 | 47.39502 | -0.78574 | 31984 ft | 439 kts | 342° |
| 2026-05-06 19:03 | 47.45328 | -0.81277 | 31986 ft | 439 kts | 342° |
| 2026-05-06 19:03 | 47.51156 | -0.83987 | 31985 ft | 439 kts | 342° |
| 2026-05-06 19:04 | 47.57102 | -0.86101 | 31983 ft | 440 kts | 349° |
| 2026-05-06 19:04 | 47.63127 | -0.87679 | 31983 ft | 440 kts | 349° |
| 2026-05-06 19:05 | 47.69151 | -0.89273 | 31988 ft | 440 kts | 349° |
| 2026-05-06 19:05 | 47.75183 | -0.90876 | 31981 ft | 440 kts | 349° |
| 2026-05-06 19:06 | 47.81211 | -0.92481 | 31978 ft | 440 kts | 349° |
| 2026-05-06 19:06 | 47.87220 | -0.94086 | 31979 ft | 440 kts | 349° |
| 2026-05-06 19:07 | 47.93256 | -0.95701 | 31973 ft | 440 kts | 349° |
| 2026-05-06 19:07 | 47.99279 | -0.97317 | 31971 ft | 440 kts | 349° |
| 2026-05-06 19:08 | 48.05288 | -0.98933 | 31971 ft | 440 kts | 349° |
| 2026-05-06 19:08 | 48.11310 | -1.00556 | 31970 ft | 440 kts | 349° |
| 2026-05-06 19:09 | 48.17360 | -1.02191 | 31973 ft | 440 kts | 349° |
| 2026-05-06 19:09 | 48.23375 | -1.03820 | 31978 ft | 440 kts | 349° |
| 2026-05-06 19:10 | 48.29483 | -1.05478 | 31979 ft | 440 kts | 349° |
| 2026-05-06 19:10 | 48.35511 | -1.07119 | 31986 ft | 440 kts | 349° |
| 2026-05-06 19:11 | 48.41553 | -1.08767 | 31987 ft | 441 kts | 349° |
| 2026-05-06 19:11 | 48.47561 | -1.10410 | 31989 ft | 441 kts | 349° |
| 2026-05-06 19:12 | 48.52596 | -1.11790 | 31984 ft | 441 kts | 349° |
| 2026-05-06 19:12 | 48.58536 | -1.13422 | 31990 ft | 442 kts | 349° |
| 2026-05-06 19:13 | 48.64455 | -1.15052 | 31990 ft | 442 kts | 349° |
| 2026-05-06 19:13 | 48.70409 | -1.16695 | 31995 ft | 443 kts | 348° |
| 2026-05-06 19:14 | 48.76484 | -1.18376 | 31996 ft | 443 kts | 348° |
| 2026-05-06 19:14 | 48.82548 | -1.20057 | 31999 ft | 443 kts | 348° |
| 2026-05-06 19:15 | 48.88619 | -1.21745 | 31997 ft | 444 kts | 348° |
| 2026-05-06 19:15 | 48.94697 | -1.23439 | 32000 ft | 444 kts | 348° |
| 2026-05-06 19:16 | 49.00760 | -1.25134 | 32004 ft | 444 kts | 348° |
| 2026-05-06 19:16 | 49.06844 | -1.26838 | 32009 ft | 444 kts | 348° |
| 2026-05-06 19:17 | 49.12923 | -1.28545 | 32005 ft | 444 kts | 348° |
| 2026-05-06 19:17 | 49.19045 | -1.30268 | 32005 ft | 444 kts | 348° |
| 2026-05-06 19:18 | 49.24816 | -1.31897 | 32004 ft | 444 kts | 348° |
| 2026-05-06 19:18 | 49.30878 | -1.33611 | 32001 ft | 444 kts | 348° |
| 2026-05-06 19:19 | 49.36820 | -1.35297 | 32000 ft | 444 kts | 348° |
| 2026-05-06 19:19 | 49.43020 | -1.37059 | 32000 ft | 444 kts | 348° |
| 2026-05-06 19:20 | 49.49083 | -1.38787 | 31992 ft | 444 kts | 348° |
| 2026-05-06 19:20 | 49.55188 | -1.40531 | 31993 ft | 444 kts | 348° |
| 2026-05-06 19:21 | 49.60963 | -1.41467 | 31990 ft | 445 kts | 356° |
| 2026-05-06 19:21 | 49.66201 | -1.42208 | 31986 ft | 444 kts | 352° |
| 2026-05-06 19:22 | 49.72005 | -1.43239 | 31988 ft | 445 kts | 352° |
| 2026-05-06 19:22 | 49.78150 | -1.44228 | 31983 ft | 445 kts | 353° |
| 2026-05-06 19:23 | 49.84065 | -1.45136 | 31992 ft | 445 kts | 353° |
| 2026-05-06 19:23 | 49.90119 | -1.46062 | 31998 ft | 445 kts | 353° |
| 2026-05-06 19:24 | 49.96251 | -1.47004 | 32000 ft | 446 kts | 353° |
| 2026-05-06 19:24 | 50.02427 | -1.47956 | 32004 ft | 446 kts | 353° |
| 2026-05-06 19:25 | 50.08605 | -1.48911 | 32003 ft | 447 kts | 353° |
| 2026-05-06 19:25 | 50.14740 | -1.49861 | 31998 ft | 447 kts | 353° |
| 2026-05-06 19:26 | 50.20727 | -1.50791 | 32006 ft | 447 kts | 353° |
| 2026-05-06 19:26 | 50.26926 | -1.51757 | 32005 ft | 447 kts | 353° |
| 2026-05-06 19:27 | 50.33124 | -1.52725 | 31996 ft | 448 kts | 352° |
| 2026-05-06 19:27 | 50.39356 | -1.53701 | 31994 ft | 448 kts | 352° |
| 2026-05-06 19:28 | 50.45564 | -1.54675 | 32012 ft | 448 kts | 352° |
| 2026-05-06 19:28 | 50.51768 | -1.55652 | 31994 ft | 448 kts | 352° |
| 2026-05-06 19:29 | 50.57972 | -1.56631 | 32000 ft | 448 kts | 352° |
| 2026-05-06 19:29 | 50.64146 | -1.57608 | 31993 ft | 448 kts | 352° |
| 2026-05-06 19:30 | 50.70362 | -1.58594 | 31991 ft | 448 kts | 352° |
| 2026-05-06 19:30 | 50.76563 | -1.59581 | 31993 ft | 448 kts | 352° |
| 2026-05-06 19:31 | 50.82749 | -1.60568 | 31999 ft | 448 kts | 352° |
| 2026-05-06 19:31 | 50.92077 | -1.62061 | 31997 ft | 448 kts | 352° |
| 2026-05-06 19:32 | 50.98286 | -1.63059 | 31996 ft | 448 kts | 352° |
| 2026-05-06 19:32 | 51.04500 | -1.64059 | 31997 ft | 448 kts | 352° |
| 2026-05-06 19:33 | 51.10706 | -1.65061 | 31995 ft | 448 kts | 352° |
| 2026-05-06 19:33 | 51.16913 | -1.66066 | 31997 ft | 448 kts | 352° |
| 2026-05-06 19:34 | 51.23126 | -1.67075 | 31997 ft | 448 kts | 352° |
| 2026-05-06 19:34 | 51.29311 | -1.68082 | 32003 ft | 448 kts | 352° |
| 2026-05-06 19:35 | 51.35565 | -1.69103 | 32003 ft | 448 kts | 352° |
| 2026-05-06 19:35 | 51.41734 | -1.70112 | 32009 ft | 448 kts | 352° |
| 2026-05-06 19:36 | 51.47978 | -1.71137 | 32014 ft | 448 kts | 352° |
| 2026-05-06 19:36 | 51.54111 | -1.72146 | 32016 ft | 448 kts | 352° |
| 2026-05-06 19:37 | 51.60350 | -1.73176 | 32010 ft | 448 kts | 352° |
| 2026-05-06 19:37 | 51.65565 | -1.74039 | 32011 ft | 447 kts | 352° |
| 2026-05-06 19:38 | 51.72805 | -1.75240 | 32009 ft | 447 kts | 352° |
| 2026-05-06 19:38 | 51.78966 | -1.76265 | 32008 ft | 447 kts | 352° |
| 2026-05-06 19:39 | 51.85172 | -1.77301 | 32021 ft | 447 kts | 352° |
| 2026-05-06 19:39 | 51.91188 | -1.78307 | 32019 ft | 446 kts | 352° |
| 2026-05-06 19:40 | 51.96328 | -1.79171 | 32020 ft | 446 kts | 352° |
| 2026-05-06 19:40 | 52.02537 | -1.80214 | 32020 ft | 446 kts | 352° |
| 2026-05-06 19:41 | 52.08693 | -1.81250 | 32023 ft | 446 kts | 352° |
| 2026-05-06 19:41 | 52.14579 | -1.82247 | 32032 ft | 446 kts | 352° |
| 2026-05-06 19:42 | 52.20600 | -1.83268 | 32038 ft | 445 kts | 352° |
| 2026-05-06 19:42 | 52.26158 | -1.84212 | 32044 ft | 445 kts | 352° |
| 2026-05-06 19:43 | 52.32254 | -1.85253 | 32049 ft | 444 kts | 352° |
| 2026-05-06 19:43 | 52.37781 | -1.86200 | 32055 ft | 444 kts | 352° |
| 2026-05-06 19:44 | 52.43792 | -1.87230 | 32052 ft | 443 kts | 352° |
| 2026-05-06 19:44 | 52.49730 | -1.88251 | 32051 ft | 442 kts | 352° |
| 2026-05-06 19:45 | 52.55806 | -1.89301 | 32048 ft | 442 kts | 353° |
| 2026-05-06 19:45 | 52.61860 | -1.90348 | 32041 ft | 441 kts | 353° |
| 2026-05-06 19:46 | 52.68037 | -1.91418 | 32030 ft | 440 kts | 353° |
| 2026-05-06 19:46 | 52.73642 | -1.92392 | 32029 ft | 439 kts | 353° |
| 2026-05-06 19:47 | 52.79798 | -1.93464 | 32029 ft | 438 kts | 353° |
| 2026-05-06 19:47 | 52.85860 | -1.94523 | 32028 ft | 437 kts | 353° |
| 2026-05-06 19:48 | 52.91866 | -1.95575 | 32035 ft | 436 kts | 353° |
| 2026-05-06 19:48 | 52.97900 | -1.96634 | 32032 ft | 436 kts | 353° |
| 2026-05-06 19:49 | 53.03922 | -1.97695 | 32031 ft | 435 kts | 353° |
| 2026-05-06 19:49 | 53.09918 | -1.98754 | 32035 ft | 434 kts | 353° |
| 2026-05-06 19:50 | 53.15924 | -1.99892 | 32035 ft | 433 kts | 348° |
| 2026-05-06 19:50 | 53.21724 | -2.02441 | 32038 ft | 432 kts | 343° |
| 2026-05-06 19:51 | 53.27471 | -2.05355 | 32042 ft | 431 kts | 343° |
| 2026-05-06 19:51 | 53.33203 | -2.08258 | 32047 ft | 431 kts | 343° |
| 2026-05-06 19:52 | 53.38937 | -2.11168 | 32048 ft | 430 kts | 343° |
| 2026-05-06 19:52 | 53.44654 | -2.14076 | 32044 ft | 429 kts | 343° |
| 2026-05-06 19:53 | 53.50365 | -2.16990 | 32042 ft | 428 kts | 343° |
| 2026-05-06 19:53 | 53.56065 | -2.19906 | 32040 ft | 428 kts | 343° |
| 2026-05-06 19:54 | 53.61891 | -2.22895 | 32034 ft | 427 kts | 343° |
| 2026-05-06 19:54 | 53.67280 | -2.25668 | 32032 ft | 426 kts | 342° |
| 2026-05-06 19:55 | 53.72820 | -2.28525 | 32032 ft | 426 kts | 342° |
| 2026-05-06 19:55 | 53.78438 | -2.31432 | 32028 ft | 425 kts | 342° |
| 2026-05-06 19:56 | 53.84130 | -2.34385 | 32026 ft | 424 kts | 342° |
| 2026-05-06 19:56 | 53.89733 | -2.37300 | 32026 ft | 424 kts | 342° |
| 2026-05-06 19:57 | 53.95548 | -2.40334 | 32027 ft | 423 kts | 342° |
| 2026-05-06 19:57 | 54.01038 | -2.43206 | 32025 ft | 423 kts | 342° |
| 2026-05-06 19:58 | 54.06650 | -2.46152 | 32023 ft | 422 kts | 342° |
| 2026-05-06 19:58 | 54.12262 | -2.49105 | 32022 ft | 422 kts | 342° |
| 2026-05-06 19:59 | 54.17924 | -2.52093 | 32027 ft | 421 kts | 342° |
| 2026-05-06 19:59 | 54.23522 | -2.55054 | 32029 ft | 421 kts | 342° |
| 2026-05-06 20:00 | 54.29110 | -2.58020 | 32032 ft | 420 kts | 342° |
| 2026-05-06 20:00 | 54.34727 | -2.61011 | 32035 ft | 419 kts | 342° |
| 2026-05-06 20:01 | 54.40297 | -2.63983 | 31891 ft | 419 kts | 342° |
| 2026-05-06 20:01 | 54.43079 | -2.65471 | 31627 ft | 419 kts | 342° |
| 2026-05-06 20:01 | 54.45911 | -2.66987 | 31377 ft | 421 kts | 342° |
| 2026-05-06 20:02 | 54.48715 | -2.68490 | 31121 ft | 422 kts | 342° |
| 2026-05-06 20:02 | 54.51521 | -2.69996 | 30868 ft | 423 kts | 342° |
| 2026-05-06 20:02 | 54.54333 | -2.71508 | 30615 ft | 423 kts | 342° |
| 2026-05-06 20:02 | 54.57177 | -2.73039 | 30376 ft | 422 kts | 342° |
| 2026-05-06 20:03 | 54.59976 | -2.74550 | 30128 ft | 421 kts | 342° |
| 2026-05-06 20:03 | 54.62736 | -2.76041 | 29851 ft | 420 kts | 342° |
| 2026-05-06 20:03 | 54.65606 | -2.77594 | 29560 ft | 418 kts | 342° |
| 2026-05-06 20:03 | 54.68384 | -2.79099 | 29272 ft | 416 kts | 342° |
| 2026-05-06 20:04 | 54.71140 | -2.80595 | 28987 ft | 414 kts | 341° |
| 2026-05-06 20:04 | 54.73887 | -2.82087 | 28710 ft | 412 kts | 341° |
| 2026-05-06 20:04 | 54.76613 | -2.83570 | 28397 ft | 411 kts | 341° |
| 2026-05-06 20:04 | 54.79343 | -2.85058 | 27822 ft | 410 kts | 341° |
| 2026-05-06 20:05 | 54.82059 | -2.86538 | 27247 ft | 407 kts | 341° |
| 2026-05-06 20:05 | 54.83833 | -2.87506 | 26863 ft | 404 kts | 341° |
| 2026-05-06 20:05 | 54.86537 | -2.88982 | 26313 ft | 399 kts | 341° |
| 2026-05-06 20:05 | 54.89112 | -2.90654 | 26085 ft | 393 kts | 335° |
| 2026-05-06 20:06 | 54.91649 | -2.92523 | 26020 ft | 399 kts | 335° |
| 2026-05-06 20:06 | 54.94207 | -2.94366 | 25966 ft | 398 kts | 336° |
| 2026-05-06 20:06 | 54.96770 | -2.96206 | 25489 ft | 399 kts | 335° |
| 2026-05-06 20:06 | 54.99305 | -2.98031 | 24618 ft | 405 kts | 335° |
| 2026-05-06 20:07 | 55.01977 | -2.99965 | 23624 ft | 413 kts | 335° |
| 2026-05-06 20:07 | 55.04627 | -3.01887 | 22840 ft | 411 kts | 335° |
| 2026-05-06 20:07 | 55.07250 | -3.03794 | 22132 ft | 405 kts | 334° |
| 2026-05-06 20:07 | 55.09833 | -3.05674 | 21135 ft | 400 kts | 334° |
| 2026-05-06 20:08 | 55.12377 | -3.07532 | 20273 ft | 393 kts | 334° |
| 2026-05-06 20:08 | 55.14864 | -3.09346 | 20050 ft | 370 kts | 334° |
| 2026-05-06 20:08 | 55.17235 | -3.11082 | 19952 ft | 373 kts | 334° |
| 2026-05-06 20:08 | 55.19622 | -3.12837 | 19786 ft | 372 kts | 334° |
| 2026-05-06 20:09 | 55.21985 | -3.14577 | 19213 ft | 375 kts | 334° |
| 2026-05-06 20:09 | 55.24436 | -3.16384 | 18214 ft | 380 kts | 334° |
| 2026-05-06 20:09 | 55.26898 | -3.18201 | 16988 ft | 384 kts | 334° |
| 2026-05-06 20:09 | 55.29346 | -3.20005 | 15999 ft | 379 kts | 334° |
| 2026-05-06 20:10 | 55.31758 | -3.21785 | 15043 ft | 376 kts | 335° |
| 2026-05-06 20:10 | 55.34150 | -3.23554 | 14139 ft | 371 kts | 335° |
| 2026-05-06 20:10 | 55.36525 | -3.25313 | 13179 ft | 368 kts | 335° |
| 2026-05-06 20:10 | 55.38874 | -3.27056 | 12301 ft | 362 kts | 335° |
| 2026-05-06 20:11 | 55.41166 | -3.28756 | 11589 ft | 353 kts | 335° |
| 2026-05-06 20:11 | 55.43430 | -3.30441 | 10877 ft | 355 kts | 335° |
| 2026-05-06 20:11 | 55.45708 | -3.32139 | 10187 ft | 356 kts | 335° |
| 2026-05-06 20:11 | 55.47975 | -3.33830 | 9722 ft | 349 kts | 334° |
| 2026-05-06 20:12 | 55.50036 | -3.35751 | 9472 ft | 325 kts | 325° |
| 2026-05-06 20:12 | 55.51799 | -3.38052 | 9251 ft | 303 kts | 317° |
| 2026-05-06 20:12 | 55.53353 | -3.40396 | 8999 ft | 287 kts | 318° |
| 2026-05-06 20:12 | 55.54871 | -3.42648 | 8551 ft | 284 kts | 318° |
| 2026-05-06 20:13 | 55.56375 | -3.44871 | 8145 ft | 281 kts | 318° |
| 2026-05-06 20:13 | 55.57851 | -3.47054 | 7758 ft | 279 kts | 318° |
| 2026-05-06 20:13 | 55.59335 | -3.49257 | 7361 ft | 278 kts | 318° |
| 2026-05-06 20:13 | 55.60807 | -3.51446 | 6976 ft | 276 kts | 318° |
| 2026-05-06 20:14 | 55.62270 | -3.53626 | 6597 ft | 274 kts | 318° |
| 2026-05-06 20:14 | 55.63726 | -3.55798 | 6196 ft | 273 kts | 318° |
| 2026-05-06 20:14 | 55.65156 | -3.57931 | 5920 ft | 267 kts | 318° |
| 2026-05-06 20:14 | 55.66460 | -3.59880 | 5418 ft | 272 kts | 318° |
| 2026-05-06 20:15 | 55.67942 | -3.62099 | 5082 ft | 268 kts | 318° |
| 2026-05-06 20:15 | 55.69356 | -3.64218 | 5001 ft | 269 kts | 318° |
| 2026-05-06 20:15 | 55.70786 | -3.66365 | 4996 ft | 269 kts | 318° |
| 2026-05-06 20:15 | 55.72206 | -3.68497 | 4998 ft | 268 kts | 317° |
| 2026-05-06 20:16 | 55.73633 | -3.70640 | 4992 ft | 268 kts | 318° |
| 2026-05-06 20:16 | 55.75054 | -3.72778 | 4995 ft | 267 kts | 317° |
| 2026-05-06 20:16 | 55.76431 | -3.74846 | 4995 ft | 253 kts | 317° |
| 2026-05-06 20:16 | 55.77796 | -3.76633 | 4995 ft | 248 kts | 334° |
| 2026-05-06 20:17 | 55.79498 | -3.77210 | 4995 ft | 253 kts | 4° |
| 2026-05-06 20:17 | 55.81155 | -3.76224 | 4995 ft | 254 kts | 34° |
| 2026-05-06 20:17 | 55.82469 | -3.74145 | 4875 ft | 254 kts | 51° |
| 2026-05-06 20:17 | 55.83369 | -3.71930 | 4577 ft | 253 kts | 59° |
| 2026-05-06 20:18 | 55.84254 | -3.69221 | 4207 ft | 252 kts | 62° |
| 2026-05-06 20:18 | 55.85153 | -3.66540 | 3830 ft | 245 kts | 61° |
| 2026-05-06 20:18 | 55.86008 | -3.63982 | 3507 ft | 236 kts | 61° |
| 2026-05-06 20:18 | 55.86835 | -3.61516 | 3182 ft | 228 kts | 62° |
| 2026-05-06 20:19 | 55.87649 | -3.59092 | 2872 ft | 221 kts | 62° |
| 2026-05-06 20:19 | 55.88412 | -3.56822 | 2580 ft | 215 kts | 62° |
| 2026-05-06 20:19 | 55.89096 | -3.54786 | 2363 ft | 203 kts | 62° |
| 2026-05-06 20:19 | 55.89815 | -3.52649 | 2052 ft | 193 kts | 62° |
| 2026-05-06 20:20 | 55.90479 | -3.50670 | 1779 ft | 177 kts | 63° |
| 2026-05-06 20:20 | 55.91083 | -3.48885 | 1539 ft | 159 kts | 63° |
| 2026-05-06 20:20 | 55.91619 | -3.47292 | 1333 ft | 143 kts | 63° |
| 2026-05-06 20:20 | 55.92108 | -3.45832 | 1082 ft | 133 kts | 63° |
| 2026-05-06 20:21 | 55.92569 | -3.44439 | 867 ft | 131 kts | 63° |
| 2026-05-06 20:21 | 55.93040 | -3.43037 | 683 ft | 131 kts | 63° |
| 2026-05-06 20:21 | 55.93512 | -3.41663 | 518 ft | 129 kts | 62° |
| 2026-05-06 20:21 | 55.93982 | -3.40286 | 353 ft | 131 kts | 63° |
| 2026-05-06 20:22 | 55.94443 | -3.38904 | 195 ft | 129 kts | 63° |
| 2026-05-06 20:22 | 55.94905 | -3.37572 | 115 ft | 119 kts | 62° |
| 2026-05-06 20:22 | 55.95290 | -3.36447 | 146 ft | 150 kts | 61° |
| 2026-05-06 20:22 | 55.95879 | -3.34736 | 650 ft | 171 kts | 62° |
| 2026-05-06 20:23 | 55.96493 | -3.32810 | 1347 ft | 185 kts | 64° |
| 2026-05-06 20:23 | 55.97127 | -3.30695 | 2105 ft | 197 kts | 66° |
| 2026-05-06 20:23 | 55.97774 | -3.28457 | 2794 ft | 212 kts | 64° |
| 2026-05-06 20:23 | 55.98524 | -3.26080 | 3440 ft | 226 kts | 62° |
| 2026-05-06 20:24 | 55.99512 | -3.23826 | 4342 ft | 231 kts | 38° |
| 2026-05-06 20:24 | 56.00954 | -3.22664 | 4810 ft | 233 kts | 7° |
| 2026-05-06 20:24 | 56.02573 | -3.22969 | 4992 ft | 231 kts | 334° |
| 2026-05-06 20:24 | 56.03805 | -3.24670 | 5007 ft | 225 kts | 301° |
| 2026-05-06 20:25 | 56.04365 | -3.27227 | 5010 ft | 221 kts | 280° |
| 2026-05-06 20:25 | 56.04577 | -3.29051 | 5005 ft | 220 kts | 275° |
| 2026-05-06 20:25 | 56.04574 | -3.32042 | 5005 ft | 219 kts | 264° |
| 2026-05-06 20:25 | 56.04441 | -3.34747 | 5008 ft | 218 kts | 259° |
| 2026-05-06 20:26 | 56.04220 | -3.37427 | 5010 ft | 217 kts | 259° |
| 2026-05-06 20:26 | 56.03989 | -3.40139 | 5009 ft | 219 kts | 259° |
| 2026-05-06 20:26 | 56.03742 | -3.42961 | 5009 ft | 238 kts | 259° |
| 2026-05-06 20:26 | 56.03451 | -3.45860 | 5006 ft | 236 kts | 255° |
| 2026-05-06 20:27 | 56.03051 | -3.48775 | 5012 ft | 253 kts | 254° |
| 2026-05-06 20:27 | 56.02612 | -3.51868 | 5005 ft | 258 kts | 254° |
| 2026-05-06 20:27 | 56.02165 | -3.55017 | 5005 ft | 258 kts | 254° |
| 2026-05-06 20:27 | 56.01722 | -3.58123 | 5005 ft | 258 kts | 254° |
| 2026-05-06 20:28 | 56.01281 | -3.61222 | 4986 ft | 257 kts | 254° |
| 2026-05-06 20:28 | 56.00852 | -3.64255 | 4883 ft | 244 kts | 254° |
| 2026-05-06 20:28 | 56.00455 | -3.67096 | 4755 ft | 228 kts | 254° |
| 2026-05-06 20:28 | 55.99979 | -3.69665 | 4584 ft | 210 kts | 238° |
| 2026-05-06 20:29 | 55.99229 | -3.71832 | 4389 ft | 201 kts | 232° |
| 2026-05-06 20:29 | 55.98244 | -3.73555 | 4094 ft | 197 kts | 213° |
| 2026-05-06 20:29 | 55.96951 | -3.74239 | 4002 ft | 200 kts | 176° |
| 2026-05-06 20:29 | 55.95575 | -3.73810 | 4003 ft | 200 kts | 169° |
| 2026-05-06 20:30 | 55.94217 | -3.73296 | 4005 ft | 200 kts | 171° |
| 2026-05-06 20:30 | 55.91569 | -3.72658 | 4008 ft | 185 kts | 174° |
| 2026-05-06 20:30 | 55.90339 | -3.72208 | 3992 ft | 183 kts | 155° |
| 2026-05-06 20:31 | 55.89363 | -3.70811 | 4004 ft | 180 kts | 139° |
| 2026-05-06 20:31 | 55.88471 | -3.69291 | 3993 ft | 179 kts | 139° |
| 2026-05-06 20:31 | 55.87862 | -3.68250 | 3943 ft | 180 kts | 139° |
| 2026-05-06 20:31 | 55.86728 | -3.66132 | 3731 ft | 182 kts | 124° |
| 2026-05-06 20:32 | 55.86456 | -3.63930 | 3477 ft | 187 kts | 88° |
| 2026-05-06 20:32 | 55.86827 | -3.61690 | 3217 ft | 189 kts | 68° |
| 2026-05-06 20:32 | 55.87460 | -3.59625 | 2956 ft | 190 kts | 61° |
| 2026-05-06 20:32 | 55.88142 | -3.57631 | 2687 ft | 188 kts | 62° |
| 2026-05-06 20:33 | 55.88592 | -3.56287 | 2509 ft | 186 kts | 62° |
| 2026-05-06 20:33 | 55.89242 | -3.54356 | 2260 ft | 177 kts | 62° |
| 2026-05-06 20:33 | 55.89847 | -3.52560 | 2031 ft | 159 kts | 63° |
| 2026-05-06 20:33 | 55.90344 | -3.51078 | 1826 ft | 145 kts | 63° |
| 2026-05-06 20:34 | 55.90683 | -3.50071 | 1696 ft | 137 kts | 64° |
| 2026-05-06 20:34 | 55.91163 | -3.48633 | 1511 ft | 139 kts | 64° |
| 2026-05-06 20:34 | 55.91608 | -3.47320 | 1330 ft | 132 kts | 63° |
| 2026-05-06 20:34 | 55.92076 | -3.45921 | 1145 ft | 134 kts | 63° |
| 2026-05-06 20:35 | 55.92552 | -3.44503 | 973 ft | 132 kts | 63° |
| 2026-05-06 20:35 | 55.93011 | -3.43135 | 762 ft | 132 kts | 63° |
| 2026-05-06 20:35 | 55.93474 | -3.41762 | 562 ft | 128 kts | 62° |
| 2026-05-06 20:35 | 55.93939 | -3.40386 | 375 ft | 131 kts | 62° |
| 2026-05-06 20:36 | 55.94404 | -3.39018 | 204 ft | 128 kts | 63° |
| 2026-05-06 20:36 | 55.94856 | -3.37668 | 115 ft | 119 kts | 62° |
| 2026-05-06 20:36 | 55.95210 | -3.36621 | 112 ft | 75 kts | 58° |
| 2026-05-06 20:36 | 55.95404 | -3.36055 | 109 ft | 37 kts | 56° |
| 2026-05-06 20:37 | 55.95514 | -3.35729 | 113 ft | 22 kts | 58° |
| 2026-05-06 20:37 | 55.95556 | -3.35514 | 111 ft | 13 kts | 120° |
| 2026-05-06 20:37 | 55.95494 | -3.35440 | 110 ft | 12 kts | 147° |
| 2026-05-06 20:37 | 55.95424 | -3.35437 | 111 ft | 11 kts | 223° |
| 2026-05-06 20:38 | 55.95376 | -3.35563 | 111 ft | 14 kts | 237° |
| 2026-05-06 20:38 | 55.95319 | -3.35733 | 110 ft | 17 kts | 240° |
| 2026-05-06 20:38 | 55.95255 | -3.35928 | 112 ft | 18 kts | 238° |
| 2026-05-06 20:38 | 55.95192 | -3.35969 | 111 ft | 9 kts | 148° |
| 2026-05-06 20:39 | 55.95130 | -3.35899 | 112 ft | 11 kts | 135° |
| 2026-05-06 20:39 | 55.95076 | -3.35789 | 112 ft | 13 kts | 165° |
| 2026-05-06 20:39 | 55.94991 | -3.35853 | 112 ft | 14 kts | 213° |
| 2026-05-06 20:39 | 55.94918 | -3.35806 | 112 ft | 9 kts | 121° |
| 2026-05-06 20:40 | 55.94913 | -3.35788 | 111 ft | 1 kts | 118° |
| 2026-05-06 20:40 | 55.94906 | -3.35768 | 112 ft | 0 kts | 120° |
| 2026-05-06 20:40 | 55.94904 | -3.35763 | 111 ft | 2 kts | 126° |
| 2026-05-06 20:41 | 55.94895 | -3.35762 | 112 ft | 2 kts | 174° |
| 2026-05-06 20:41 | 55.94870 | -3.35777 | 112 ft | 7 kts | 204° |
| 2026-05-06 20:41 | 55.94851 | -3.35794 | 109 ft | 4 kts | 207° |
| 2026-05-06 20:41 | 55.94835 | -3.35808 | 111 ft | 2 kts | 207° |